Kensington, Canada
Current Conditions -  °F | °C
As of 4:00 PM on Monday 26 Jan 2015 (Local Time) from CYYG Reporting Station
Scattered Clouds Scattered Clouds  
Wind Chill: -2°   Ceiling: Unl
Heat Index: 10°   Visibility: 15mi
Dew Point: -2°   Wind: 8mph
Humidity: 57%   Direction: 320°NW
Pressure: 30.21"   Gusts: NA
Location:  46.43°N, 63.65°W
Report Text: CYYG 262000Z 32007KT 15SM FEW030 SCT250 M12/M19 A3021 RMK SC1CI2 SLP235
Loading
Personal Weather Stations






























Interactive Weather Map New forecast layout! Learn more

10-Day Weather Forecast

Advertisements
Track Severe Weather on mobile